sensor_id;sensor_type;location;lat;lon;timestamp;temperature;humidity
66726;HTU21D;53638;51.062;5.804;2024-02-16T00:00:13;14.29;-6.00
66726;HTU21D;53638;51.062;5.804;2024-02-16T00:02:40;14.29;-6.00
66726;HTU21D;53638;51.062;5.804;2024-02-16T00:05:08;14.37;-6.00
66726;HTU21D;53638;51.062;5.804;2024-02-16T00:07:36;14.40;-6.00
66726;HTU21D;53638;51.062;5.804;2024-02-16T00:10:04;14.40;-6.00
66726;HTU21D;53638;51.062;5.804;2024-02-16T00:12:31;14.42;-6.00
66726;HTU21D;53638;51.062;5.804;2024-02-16T00:14:58;14.38;-6.00
66726;HTU21D;53638;51.062;5.804;2024-02-16T00:17:24;14.47;-6.00
66726;HTU21D;53638;51.062;5.804;2024-02-16T00:19:54;14.49;-6.00
66726;HTU21D;53638;51.062;5.804;2024-02-16T00:22:20;14.52;-6.00
66726;HTU21D;53638;51.062;5.804;2024-02-16T00:24:46;14.54;-6.00
66726;HTU21D;53638;51.062;5.804;2024-02-16T00:27:14;14.57;-6.00
66726;HTU21D;53638;51.062;5.804;2024-02-16T00:29:41;14.58;-6.00
66726;HTU21D;53638;51.062;5.804;2024-02-16T00:32:07;14.58;-6.00
66726;HTU21D;53638;51.062;5.804;2024-02-16T00:34:36;14.52;-6.00
66726;HTU21D;53638;51.062;5.804;2024-02-16T00:37:03;14.54;-6.00
66726;HTU21D;53638;51.062;5.804;2024-02-16T00:39:33;14.45;-6.00
66726;HTU21D;53638;51.062;5.804;2024-02-16T00:41:59;14.48;-6.00
66726;HTU21D;53638;51.062;5.804;2024-02-16T00:44:25;14.55;-6.00
66726;HTU21D;53638;51.062;5.804;2024-02-16T00:46:51;14.54;-6.00
66726;HTU21D;53638;51.062;5.804;2024-02-16T00:49:17;14.53;-6.00
66726;HTU21D;53638;51.062;5.804;2024-02-16T00:51:42;14.52;-6.00
66726;HTU21D;53638;51.062;5.804;2024-02-16T00:54:08;14.49;-6.00
66726;HTU21D;53638;51.062;5.804;2024-02-16T00:56:34;14.48;-6.00
66726;HTU21D;53638;51.062;5.804;2024-02-16T00:59:00;14.48;-6.00
66726;HTU21D;53638;51.062;5.804;2024-02-16T01:01:26;14.48;-6.00
66726;HTU21D;53638;51.062;5.804;2024-02-16T01:03:52;14.53;-6.00
66726;HTU21D;53638;51.062;5.804;2024-02-16T01:06:19;14.50;-6.00
66726;HTU21D;53638;51.062;5.804;2024-02-16T01:08:45;14.38;-6.00
66726;HTU21D;53638;51.062;5.804;2024-02-16T01:11:12;14.36;-6.00
66726;HTU21D;53638;51.062;5.804;2024-02-16T01:13:40;14.36;-6.00
66726;HTU21D;53638;51.062;5.804;2024-02-16T01:16:06;14.32;-6.00
66726;HTU21D;53638;51.062;5.804;2024-02-16T01:18:32;14.27;-6.00
66726;HTU21D;53638;51.062;5.804;2024-02-16T01:20:59;14.21;-6.00
66726;HTU21D;53638;51.062;5.804;2024-02-16T01:23:24;14.15;-6.00
66726;HTU21D;53638;51.062;5.804;2024-02-16T01:25:50;14.10;-6.00
66726;HTU21D;53638;51.062;5.804;2024-02-16T01:28:16;14.15;-6.00
66726;HTU21D;53638;51.062;5.804;2024-02-16T01:30:42;14.18;-6.00
66726;HTU21D;53638;51.062;5.804;2024-02-16T01:33:08;14.24;-6.00
66726;HTU21D;53638;51.062;5.804;2024-02-16T01:35:35;14.22;-6.00
66726;HTU21D;53638;51.062;5.804;2024-02-16T01:38:01;14.27;-6.00
66726;HTU21D;53638;51.062;5.804;2024-02-16T01:40:27;14.28;-6.00
66726;HTU21D;53638;51.062;5.804;2024-02-16T01:42:54;14.26;-6.00
66726;HTU21D;53638;51.062;5.804;2024-02-16T01:45:20;14.27;-6.00
66726;HTU21D;53638;51.062;5.804;2024-02-16T01:47:49;14.26;-6.00
66726;HTU21D;53638;51.062;5.804;2024-02-16T01:50:17;14.25;-6.00
66726;HTU21D;53638;51.062;5.804;2024-02-16T01:52:44;14.26;-6.00
66726;HTU21D;53638;51.062;5.804;2024-02-16T01:55:12;14.27;-6.00
66726;HTU21D;53638;51.062;5.804;2024-02-16T01:57:39;14.30;-6.00
66726;HTU21D;53638;51.062;5.804;2024-02-16T02:00:06;14.33;-6.00
66726;HTU21D;53638;51.062;5.804;2024-02-16T02:02:34;14.34;-6.00
66726;HTU21D;53638;51.062;5.804;2024-02-16T02:05:01;14.35;-6.00
66726;HTU21D;53638;51.062;5.804;2024-02-16T02:07:27;14.30;-6.00
66726;HTU21D;53638;51.062;5.804;2024-02-16T02:09:54;14.26;-6.00
66726;HTU21D;53638;51.062;5.804;2024-02-16T02:12:21;14.14;-6.00
66726;HTU21D;53638;51.062;5.804;2024-02-16T02:14:49;14.12;-6.00
66726;HTU21D;53638;51.062;5.804;2024-02-16T02:17:15;14.08;-6.00
66726;HTU21D;53638;51.062;5.804;2024-02-16T02:19:41;14.08;-6.00
66726;HTU21D;53638;51.062;5.804;2024-02-16T02:22:17;14.11;-6.00
66726;HTU21D;53638;51.062;5.804;2024-02-16T02:24:44;14.09;-6.00
66726;HTU21D;53638;51.062;5.804;2024-02-16T02:27:10;14.11;-6.00
66726;HTU21D;53638;51.062;5.804;2024-02-16T02:29:36;14.10;-6.00
66726;HTU21D;53638;51.062;5.804;2024-02-16T02:32:02;14.17;-6.00
66726;HTU21D;53638;51.062;5.804;2024-02-16T02:34:28;14.17;-6.00
66726;HTU21D;53638;51.062;5.804;2024-02-16T02:36:54;14.13;-6.00
66726;HTU21D;53638;51.062;5.804;2024-02-16T02:39:19;14.20;-6.00
66726;HTU21D;53638;51.062;5.804;2024-02-16T02:41:45;14.24;-6.00
66726;HTU21D;53638;51.062;5.804;2024-02-16T02:44:11;14.26;-6.00
66726;HTU21D;53638;51.062;5.804;2024-02-16T02:46:37;14.32;-6.00
66726;HTU21D;53638;51.062;5.804;2024-02-16T02:49:03;14.41;-6.00
66726;HTU21D;53638;51.062;5.804;2024-02-16T02:51:29;14.39;-6.00
66726;HTU21D;53638;51.062;5.804;2024-02-16T02:53:55;14.43;-6.00
66726;HTU21D;53638;51.062;5.804;2024-02-16T02:56:21;14.51;-6.00
66726;HTU21D;53638;51.062;5.804;2024-02-16T02:58:47;14.53;-6.00
66726;HTU21D;53638;51.062;5.804;2024-02-16T03:01:13;14.51;-6.00
66726;HTU21D;53638;51.062;5.804;2024-02-16T03:03:40;14.57;-6.00
66726;HTU21D;53638;51.062;5.804;2024-02-16T03:06:07;14.58;-6.00
66726;HTU21D;53638;51.062;5.804;2024-02-16T03:08:33;14.51;-6.00
66726;HTU21D;53638;51.062;5.804;2024-02-16T03:10:59;14.55;-6.00
66726;HTU21D;53638;51.062;5.804;2024-02-16T03:13:26;14.42;-6.00
66726;HTU21D;53638;51.062;5.804;2024-02-16T03:15:52;14.47;-6.00
66726;HTU21D;53638;51.062;5.804;2024-02-16T03:18:19;14.55;-6.00
66726;HTU21D;53638;51.062;5.804;2024-02-16T03:20:45;14.54;-6.00
66726;HTU21D;53638;51.062;5.804;2024-02-16T03:23:14;14.50;-6.00
66726;HTU21D;53638;51.062;5.804;2024-02-16T03:25:40;14.53;-6.00
66726;HTU21D;53638;51.062;5.804;2024-02-16T03:28:15;14.49;-6.00
66726;HTU21D;53638;51.062;5.804;2024-02-16T03:30:43;14.44;-6.00
66726;HTU21D;53638;51.062;5.804;2024-02-16T03:33:10;14.51;-6.00
66726;HTU21D;53638;51.062;5.804;2024-02-16T03:35:36;14.48;-6.00
66726;HTU21D;53638;51.062;5.804;2024-02-16T03:38:03;14.51;-6.00
66726;HTU21D;53638;51.062;5.804;2024-02-16T03:40:29;14.45;-6.00
66726;HTU21D;53638;51.062;5.804;2024-02-16T03:42:55;14.35;-6.00
66726;HTU21D;53638;51.062;5.804;2024-02-16T03:45:22;14.40;-6.00
66726;HTU21D;53638;51.062;5.804;2024-02-16T03:47:48;14.38;-6.00
66726;HTU21D;53638;51.062;5.804;2024-02-16T03:50:14;14.43;-6.00
66726;HTU21D;53638;51.062;5.804;2024-02-16T03:52:41;14.41;-6.00
66726;HTU21D;53638;51.062;5.804;2024-02-16T03:55:07;14.45;-6.00
66726;HTU21D;53638;51.062;5.804;2024-02-16T03:57:33;14.44;-6.00
66726;HTU21D;53638;51.062;5.804;2024-02-16T03:59:59;14.47;-6.00
66726;HTU21D;53638;51.062;5.804;2024-02-16T04:02:25;14.45;-6.00
66726;HTU21D;53638;51.062;5.804;2024-02-16T04:04:51;14.41;-6.00
66726;HTU21D;53638;51.062;5.804;2024-02-16T04:07:17;14.42;-6.00
66726;HTU21D;53638;51.062;5.804;2024-02-16T04:09:43;14.37;-6.00
66726;HTU21D;53638;51.062;5.804;2024-02-16T04:12:08;14.37;-6.00
66726;HTU21D;53638;51.062;5.804;2024-02-16T04:14:36;14.35;-6.00
66726;HTU21D;53638;51.062;5.804;2024-02-16T04:17:02;14.29;-6.00
66726;HTU21D;53638;51.062;5.804;2024-02-16T04:19:28;14.33;-6.00
66726;HTU21D;53638;51.062;5.804;2024-02-16T04:21:55;14.27;-6.00
66726;HTU21D;53638;51.062;5.804;2024-02-16T04:24:21;14.23;-6.00
66726;HTU21D;53638;51.062;5.804;2024-02-16T04:26:47;14.20;-6.00
66726;HTU21D;53638;51.062;5.804;2024-02-16T04:29:14;14.19;-6.00
66726;HTU21D;53638;51.062;5.804;2024-02-16T04:31:40;14.19;-6.00
66726;HTU21D;53638;51.062;5.804;2024-02-16T04:34:08;14.19;-6.00
66726;HTU21D;53638;51.062;5.804;2024-02-16T04:36:35;14.21;-6.00
66726;HTU21D;53638;51.062;5.804;2024-02-16T04:39:01;14.23;-6.00
66726;HTU21D;53638;51.062;5.804;2024-02-16T04:41:27;14.26;-6.00
66726;HTU21D;53638;51.062;5.804;2024-02-16T04:43:53;14.27;-6.00
66726;HTU21D;53638;51.062;5.804;2024-02-16T04:46:19;14.27;-6.00
66726;HTU21D;53638;51.062;5.804;2024-02-16T04:48:45;14.28;-6.00
66726;HTU21D;53638;51.062;5.804;2024-02-16T04:51:11;14.27;-6.00
66726;HTU21D;53638;51.062;5.804;2024-02-16T04:53:37;14.35;-6.00
66726;HTU21D;53638;51.062;5.804;2024-02-16T04:56:03;14.34;-6.00
66726;HTU21D;53638;51.062;5.804;2024-02-16T04:58:31;14.39;-6.00
66726;HTU21D;53638;51.062;5.804;2024-02-16T05:00:57;14.37;-6.00
66726;HTU21D;53638;51.062;5.804;2024-02-16T05:03:23;14.40;-6.00
66726;HTU21D;53638;51.062;5.804;2024-02-16T05:05:50;14.42;-6.00
66726;HTU21D;53638;51.062;5.804;2024-02-16T05:08:18;14.43;-6.00
66726;HTU21D;53638;51.062;5.804;2024-02-16T05:10:44;14.43;-6.00
66726;HTU21D;53638;51.062;5.804;2024-02-16T05:13:09;14.44;-6.00
66726;HTU21D;53638;51.062;5.804;2024-02-16T05:15:38;14.45;-6.00
66726;HTU21D;53638;51.062;5.804;2024-02-16T05:18:04;14.44;-6.00
66726;HTU21D;53638;51.062;5.804;2024-02-16T05:20:30;14.49;-6.00
66726;HTU21D;53638;51.062;5.804;2024-02-16T05:22:56;14.50;-6.00
66726;HTU21D;53638;51.062;5.804;2024-02-16T05:25:22;14.50;-6.00
66726;HTU21D;53638;51.062;5.804;2024-02-16T05:27:48;14.49;-6.00
66726;HTU21D;53638;51.062;5.804;2024-02-16T05:30:14;14.52;-6.00
66726;HTU21D;53638;51.062;5.804;2024-02-16T05:32:42;14.54;-6.00
66726;HTU21D;53638;51.062;5.804;2024-02-16T05:35:09;14.51;-6.00
66726;HTU21D;53638;51.062;5.804;2024-02-16T05:37:40;14.55;-6.00
66726;HTU21D;53638;51.062;5.804;2024-02-16T05:40:10;14.56;-6.00
66726;HTU21D;53638;51.062;5.804;2024-02-16T05:42:51;14.53;-6.00
66726;HTU21D;53638;51.062;5.804;2024-02-16T05:45:18;14.53;-6.00
66726;HTU21D;53638;51.062;5.804;2024-02-16T05:47:45;14.54;-6.00
66726;HTU21D;53638;51.062;5.804;2024-02-16T05:50:12;14.58;-6.00
66726;HTU21D;53638;51.062;5.804;2024-02-16T05:52:39;14.58;-6.00
66726;HTU21D;53638;51.062;5.804;2024-02-16T05:55:06;14.63;-6.00
66726;HTU21D;53638;51.062;5.804;2024-02-16T05:57:33;14.62;-6.00
66726;HTU21D;53638;51.062;5.804;2024-02-16T05:59:58;14.48;-6.00
66726;HTU21D;53638;51.062;5.804;2024-02-16T06:02:24;14.50;-6.00
66726;HTU21D;53638;51.062;5.804;2024-02-16T06:04:52;14.42;-6.00
66726;HTU21D;53638;51.062;5.804;2024-02-16T06:07:18;14.36;-6.00
66726;HTU21D;53638;51.062;5.804;2024-02-16T06:09:44;14.34;-6.00
66726;HTU21D;53638;51.062;5.804;2024-02-16T06:12:10;14.28;-6.00
66726;HTU21D;53638;51.062;5.804;2024-02-16T06:14:38;14.29;-6.00
66726;HTU21D;53638;51.062;5.804;2024-02-16T06:17:04;14.29;-6.00
66726;HTU21D;53638;51.062;5.804;2024-02-16T06:19:30;14.25;-6.00
66726;HTU21D;53638;51.062;5.804;2024-02-16T06:21:56;14.24;-6.00
66726;HTU21D;53638;51.062;5.804;2024-02-16T06:24:23;14.24;-6.00
66726;HTU21D;53638;51.062;5.804;2024-02-16T06:26:49;14.24;-6.00
66726;HTU21D;53638;51.062;5.804;2024-02-16T06:29:17;14.24;-6.00
66726;HTU21D;53638;51.062;5.804;2024-02-16T06:31:46;14.15;-6.00
66726;HTU21D;53638;51.062;5.804;2024-02-16T06:34:14;14.17;-6.00
66726;HTU21D;53638;51.062;5.804;2024-02-16T06:36:40;14.11;-6.00
66726;HTU21D;53638;51.062;5.804;2024-02-16T06:39:06;14.11;-6.00
66726;HTU21D;53638;51.062;5.804;2024-02-16T06:41:32;14.18;-6.00
66726;HTU21D;53638;51.062;5.804;2024-02-16T06:43:58;14.14;-6.00
66726;HTU21D;53638;51.062;5.804;2024-02-16T06:46:24;14.22;-6.00
66726;HTU21D;53638;51.062;5.804;2024-02-16T06:48:53;14.22;-6.00
66726;HTU21D;53638;51.062;5.804;2024-02-16T06:51:23;14.21;-6.00
66726;HTU21D;53638;51.062;5.804;2024-02-16T06:53:50;14.21;-6.00
66726;HTU21D;53638;51.062;5.804;2024-02-16T06:56:17;14.26;-6.00
66726;HTU21D;53638;51.062;5.804;2024-02-16T06:58:44;14.29;-6.00
66726;HTU21D;53638;51.062;5.804;2024-02-16T07:01:13;14.37;-6.00
66726;HTU21D;53638;51.062;5.804;2024-02-16T07:03:39;14.34;-6.00
66726;HTU21D;53638;51.062;5.804;2024-02-16T07:06:06;14.36;-6.00
66726;HTU21D;53638;51.062;5.804;2024-02-16T07:08:36;14.42;-6.00
66726;HTU21D;53638;51.062;5.804;2024-02-16T07:11:04;14.42;-6.00
66726;HTU21D;53638;51.062;5.804;2024-02-16T07:13:32;14.51;-6.00
66726;HTU21D;53638;51.062;5.804;2024-02-16T07:15:59;14.47;-6.00
66726;HTU21D;53638;51.062;5.804;2024-02-16T07:18:25;14.53;-6.00
66726;HTU21D;53638;51.062;5.804;2024-02-16T07:20:52;14.51;-6.00
66726;HTU21D;53638;51.062;5.804;2024-02-16T07:23:17;14.58;-6.00
66726;HTU21D;53638;51.062;5.804;2024-02-16T07:25:43;14.57;-6.00
66726;HTU21D;53638;51.062;5.804;2024-02-16T07:28:09;14.55;-6.00
66726;HTU21D;53638;51.062;5.804;2024-02-16T07:30:35;14.56;-6.00
66726;HTU21D;53638;51.062;5.804;2024-02-16T07:33:05;14.60;-6.00
66726;HTU21D;53638;51.062;5.804;2024-02-16T07:35:31;14.70;-6.00
66726;HTU21D;53638;51.062;5.804;2024-02-16T07:37:57;14.70;-6.00
66726;HTU21D;53638;51.062;5.804;2024-02-16T07:40:22;14.70;-6.00
66726;HTU21D;53638;51.062;5.804;2024-02-16T07:42:48;14.77;-6.00
66726;HTU21D;53638;51.062;5.804;2024-02-16T07:45:14;14.75;-6.00
66726;HTU21D;53638;51.062;5.804;2024-02-16T07:47:41;14.78;-6.00
66726;HTU21D;53638;51.062;5.804;2024-02-16T07:50:11;14.78;-6.00
66726;HTU21D;53638;51.062;5.804;2024-02-16T07:52:38;14.88;-6.00
66726;HTU21D;53638;51.062;5.804;2024-02-16T07:55:05;14.86;-6.00
66726;HTU21D;53638;51.062;5.804;2024-02-16T07:57:31;14.81;-6.00
66726;HTU21D;53638;51.062;5.804;2024-02-16T07:59:57;14.83;-6.00
66726;HTU21D;53638;51.062;5.804;2024-02-16T08:02:23;14.79;-6.00
66726;HTU21D;53638;51.062;5.804;2024-02-16T08:04:49;14.75;-6.00
66726;HTU21D;53638;51.062;5.804;2024-02-16T08:07:15;14.78;-6.00
66726;HTU21D;53638;51.062;5.804;2024-02-16T08:09:44;14.80;-6.00
66726;HTU21D;53638;51.062;5.804;2024-02-16T08:12:11;14.83;-6.00
66726;HTU21D;53638;51.062;5.804;2024-02-16T08:14:38;14.73;-6.00
66726;HTU21D;53638;51.062;5.804;2024-02-16T08:17:06;14.82;-6.00
66726;HTU21D;53638;51.062;5.804;2024-02-16T08:19:34;14.79;-6.00
66726;HTU21D;53638;51.062;5.804;2024-02-16T08:22:02;14.79;-6.00
66726;HTU21D;53638;51.062;5.804;2024-02-16T08:24:32;14.91;-6.00
66726;HTU21D;53638;51.062;5.804;2024-02-16T08:26:58;14.86;-6.00
66726;HTU21D;53638;51.062;5.804;2024-02-16T08:29:24;14.91;-6.00
66726;HTU21D;53638;51.062;5.804;2024-02-16T08:31:51;14.89;-6.00
66726;HTU21D;53638;51.062;5.804;2024-02-16T08:34:18;14.77;-6.00
66726;HTU21D;53638;51.062;5.804;2024-02-16T08:36:48;14.59;-6.00
66726;HTU21D;53638;51.062;5.804;2024-02-16T08:39:16;14.55;-6.00
66726;HTU21D;53638;51.062;5.804;2024-02-16T08:41:42;14.56;-6.00
66726;HTU21D;53638;51.062;5.804;2024-02-16T08:44:09;14.53;-6.00
66726;HTU21D;53638;51.062;5.804;2024-02-16T08:46:36;14.72;-6.00
66726;HTU21D;53638;51.062;5.804;2024-02-16T08:49:02;14.71;-6.00
66726;HTU21D;53638;51.062;5.804;2024-02-16T08:51:28;14.84;-6.00
66726;HTU21D;53638;51.062;5.804;2024-02-16T08:53:55;14.94;-6.00
66726;HTU21D;53638;51.062;5.804;2024-02-16T08:56:21;14.97;-6.00
66726;HTU21D;53638;51.062;5.804;2024-02-16T08:58:46;15.04;-6.00
66726;HTU21D;53638;51.062;5.804;2024-02-16T09:01:12;15.04;-6.00
66726;HTU21D;53638;51.062;5.804;2024-02-16T09:03:38;15.13;-6.00
66726;HTU21D;53638;51.062;5.804;2024-02-16T09:06:06;15.17;-6.00
66726;HTU21D;53638;51.062;5.804;2024-02-16T09:08:32;15.23;-6.00
66726;HTU21D;53638;51.062;5.804;2024-02-16T09:11:01;15.31;-6.00
66726;HTU21D;53638;51.062;5.804;2024-02-16T09:13:32;15.32;-6.00
66726;HTU21D;53638;51.062;5.804;2024-02-16T09:15:58;15.34;-6.00
66726;HTU21D;53638;51.062;5.804;2024-02-16T09:18:24;15.41;-6.00
66726;HTU21D;53638;51.062;5.804;2024-02-16T09:20:49;15.42;-6.00
66726;HTU21D;53638;51.062;5.804;2024-02-16T09:23:15;15.46;-6.00
66726;HTU21D;53638;51.062;5.804;2024-02-16T09:25:41;15.51;-6.00
66726;HTU21D;53638;51.062;5.804;2024-02-16T09:28:07;15.57;-6.00
66726;HTU21D;53638;51.062;5.804;2024-02-16T09:30:33;15.59;-6.00
66726;HTU21D;53638;51.062;5.804;2024-02-16T09:32:58;15.42;-6.00
66726;HTU21D;53638;51.062;5.804;2024-02-16T09:35:24;15.14;-6.00
66726;HTU21D;53638;51.062;5.804;2024-02-16T09:37:50;14.81;-6.00
66726;HTU21D;53638;51.062;5.804;2024-02-16T09:40:16;14.57;-6.00
66726;HTU21D;53638;51.062;5.804;2024-02-16T09:42:48;14.55;-6.00
66726;HTU21D;53638;51.062;5.804;2024-02-16T09:45:16;14.58;-6.00
66726;HTU21D;53638;51.062;5.804;2024-02-16T09:47:43;14.75;-6.00
66726;HTU21D;53638;51.062;5.804;2024-02-16T09:50:10;14.93;-6.00
66726;HTU21D;53638;51.062;5.804;2024-02-16T09:52:36;15.15;-6.00
66726;HTU21D;53638;51.062;5.804;2024-02-16T09:55:03;15.27;-6.00
66726;HTU21D;53638;51.062;5.804;2024-02-16T09:57:32;15.37;-6.00
66726;HTU21D;53638;51.062;5.804;2024-02-16T09:59:58;15.41;-6.00
66726;HTU21D;53638;51.062;5.804;2024-02-16T10:02:25;15.55;-6.00
66726;HTU21D;53638;51.062;5.804;2024-02-16T10:04:50;15.61;-6.00
66726;HTU21D;53638;51.062;5.804;2024-02-16T10:07:16;15.70;-6.00
66726;HTU21D;53638;51.062;5.804;2024-02-16T10:09:43;15.62;-6.00
66726;HTU21D;53638;51.062;5.804;2024-02-16T10:12:09;15.54;-6.00
66726;HTU21D;53638;51.062;5.804;2024-02-16T10:14:35;15.60;-6.00
66726;HTU21D;53638;51.062;5.804;2024-02-16T10:17:01;15.65;-6.00
66726;HTU21D;53638;51.062;5.804;2024-02-16T10:19:29;15.62;-6.00
66726;HTU21D;53638;51.062;5.804;2024-02-16T10:22:07;15.68;-6.00
66726;HTU21D;53638;51.062;5.804;2024-02-16T10:24:34;15.62;-6.00
66726;HTU21D;53638;51.062;5.804;2024-02-16T10:26:59;15.62;-6.00
66726;HTU21D;53638;51.062;5.804;2024-02-16T10:29:27;15.36;-6.00
66726;HTU21D;53638;51.062;5.804;2024-02-16T10:31:55;14.62;-6.00
66726;HTU21D;53638;51.062;5.804;2024-02-16T10:34:24;14.25;-6.00
66726;HTU21D;53638;51.062;5.804;2024-02-16T10:36:51;14.22;-6.00
66726;HTU21D;53638;51.062;5.804;2024-02-16T10:39:18;14.08;-6.00
66726;HTU21D;53638;51.062;5.804;2024-02-16T10:41:45;13.93;-6.00
66726;HTU21D;53638;51.062;5.804;2024-02-16T10:44:12;13.98;-6.00
66726;HTU21D;53638;51.062;5.804;2024-02-16T10:46:40;14.01;-6.00
66726;HTU21D;53638;51.062;5.804;2024-02-16T10:49:06;14.06;-6.00
66726;HTU21D;53638;51.062;5.804;2024-02-16T10:51:37;14.13;-6.00
66726;HTU21D;53638;51.062;5.804;2024-02-16T10:54:05;14.14;-6.00
66726;HTU21D;53638;51.062;5.804;2024-02-16T10:59:04;14.25;-6.00
66726;HTU21D;53638;51.062;5.804;2024-02-16T11:01:33;14.26;-6.00
66726;HTU21D;53638;51.062;5.804;2024-02-16T11:04:04;14.27;-6.00
66726;HTU21D;53638;51.062;5.804;2024-02-16T11:06:46;14.25;-6.00
66726;HTU21D;53638;51.062;5.804;2024-02-16T11:09:26;14.33;-6.00
66726;HTU21D;53638;51.062;5.804;2024-02-16T11:11:55;14.48;-6.00
66726;HTU21D;53638;51.062;5.804;2024-02-16T11:14:24;14.47;-6.00
66726;HTU21D;53638;51.062;5.804;2024-02-16T11:16:54;14.48;-6.00
66726;HTU21D;53638;51.062;5.804;2024-02-16T11:19:25;14.38;-6.00
66726;HTU21D;53638;51.062;5.804;2024-02-16T11:21:58;14.34;-6.00
66726;HTU21D;53638;51.062;5.804;2024-02-16T11:24:31;14.36;-6.00
66726;HTU21D;53638;51.062;5.804;2024-02-16T11:26:58;14.29;-6.00
66726;HTU21D;53638;51.062;5.804;2024-02-16T11:29:25;14.37;-6.00
66726;HTU21D;53638;51.062;5.804;2024-02-16T11:31:52;14.32;-6.00
66726;HTU21D;53638;51.062;5.804;2024-02-16T11:34:23;14.39;-6.00
66726;HTU21D;53638;51.062;5.804;2024-02-16T11:36:52;14.54;-6.00
66726;HTU21D;53638;51.062;5.804;2024-02-16T11:39:19;14.54;-6.00
66726;HTU21D;53638;51.062;5.804;2024-02-16T11:41:45;14.47;-6.00
66726;HTU21D;53638;51.062;5.804;2024-02-16T11:44:13;14.36;-6.00
66726;HTU21D;53638;51.062;5.804;2024-02-16T11:46:42;14.30;-6.00
66726;HTU21D;53638;51.062;5.804;2024-02-16T11:49:08;14.36;-6.00
66726;HTU21D;53638;51.062;5.804;2024-02-16T11:51:35;14.29;-6.00
66726;HTU21D;53638;51.062;5.804;2024-02-16T11:54:01;14.24;-6.00
66726;HTU21D;53638;51.062;5.804;2024-02-16T11:56:28;14.11;-6.00
66726;HTU21D;53638;51.062;5.804;2024-02-16T11:58:55;14.06;-6.00
66726;HTU21D;53638;51.062;5.804;2024-02-16T12:01:21;14.12;-6.00
66726;HTU21D;53638;51.062;5.804;2024-02-16T12:03:47;14.18;-6.00
66726;HTU21D;53638;51.062;5.804;2024-02-16T12:06:20;14.14;-6.00
66726;HTU21D;53638;51.062;5.804;2024-02-16T12:08:49;14.12;-6.00
66726;HTU21D;53638;51.062;5.804;2024-02-16T12:11:15;14.21;-6.00
66726;HTU21D;53638;51.062;5.804;2024-02-16T12:13:41;14.28;-6.00
66726;HTU21D;53638;51.062;5.804;2024-02-16T12:16:08;14.28;-6.00
66726;HTU21D;53638;51.062;5.804;2024-02-16T12:18:33;14.28;-6.00
66726;HTU21D;53638;51.062;5.804;2024-02-16T12:21:02;14.36;-6.00
66726;HTU21D;53638;51.062;5.804;2024-02-16T12:23:29;14.28;-6.00
66726;HTU21D;53638;51.062;5.804;2024-02-16T12:25:58;14.34;-6.00
66726;HTU21D;53638;51.062;5.804;2024-02-16T12:28:26;14.29;-6.00
66726;HTU21D;53638;51.062;5.804;2024-02-16T12:30:55;14.38;-6.00
66726;HTU21D;53638;51.062;5.804;2024-02-16T12:33:22;14.33;-6.00
66726;HTU21D;53638;51.062;5.804;2024-02-16T12:35:48;14.27;-6.00
66726;HTU21D;53638;51.062;5.804;2024-02-16T12:38:14;14.29;-6.00
66726;HTU21D;53638;51.062;5.804;2024-02-16T12:40:43;14.25;-6.00
66726;HTU21D;53638;51.062;5.804;2024-02-16T12:43:09;14.27;-6.00
66726;HTU21D;53638;51.062;5.804;2024-02-16T12:45:37;14.25;-6.00
66726;HTU21D;53638;51.062;5.804;2024-02-16T12:48:03;14.23;-6.00
66726;HTU21D;53638;51.062;5.804;2024-02-16T12:50:31;14.17;-6.00
66726;HTU21D;53638;51.062;5.804;2024-02-16T12:52:57;14.19;-6.00
66726;HTU21D;53638;51.062;5.804;2024-02-16T12:55:24;14.14;-6.00
66726;HTU21D;53638;51.062;5.804;2024-02-16T12:57:50;14.04;-6.00
66726;HTU21D;53638;51.062;5.804;2024-02-16T13:00:17;13.98;-6.00
66726;HTU21D;53638;51.062;5.804;2024-02-16T13:02:43;13.77;-6.00
66726;HTU21D;53638;51.062;5.804;2024-02-16T13:05:09;13.64;-6.00
66726;HTU21D;53638;51.062;5.804;2024-02-16T13:07:37;13.53;-6.00
66726;HTU21D;53638;51.062;5.804;2024-02-16T13:10:11;13.51;-6.00
66726;HTU21D;53638;51.062;5.804;2024-02-16T13:12:38;13.55;-6.00
66726;HTU21D;53638;51.062;5.804;2024-02-16T13:15:05;13.44;-6.00
66726;HTU21D;53638;51.062;5.804;2024-02-16T13:17:32;13.39;-6.00
66726;HTU21D;53638;51.062;5.804;2024-02-16T13:19:58;13.31;-6.00
66726;HTU21D;53638;51.062;5.804;2024-02-16T13:22:38;13.16;118.99
66726;HTU21D;53638;51.062;5.804;2024-02-16T13:25:05;13.00;118.99
66726;HTU21D;53638;51.062;5.804;2024-02-16T13:27:32;13.07;118.99
66726;HTU21D;53638;51.062;5.804;2024-02-16T13:29:58;13.10;118.99
66726;HTU21D;53638;51.062;5.804;2024-02-16T13:32:24;13.09;118.99
66726;HTU21D;53638;51.062;5.804;2024-02-16T13:34:50;13.11;114.06
66726;HTU21D;53638;51.062;5.804;2024-02-16T13:37:16;13.18;72.83
66726;HTU21D;53638;51.062;5.804;2024-02-16T13:39:42;13.15;89.65
66726;HTU21D;53638;51.062;5.804;2024-02-16T13:42:09;13.12;83.52
66726;HTU21D;53638;51.062;5.804;2024-02-16T13:44:37;13.24;46.39
66726;HTU21D;53638;51.062;5.804;2024-02-16T13:47:03;13.34;4.91
66726;HTU21D;53638;51.062;5.804;2024-02-16T13:49:38;13.50;-6.00
66726;HTU21D;53638;51.062;5.804;2024-02-16T13:52:05;13.60;-6.00
66726;HTU21D;53638;51.062;5.804;2024-02-16T13:54:31;13.69;-6.00
66726;HTU21D;53638;51.062;5.804;2024-02-16T13:56:56;13.77;-6.00
66726;HTU21D;53638;51.062;5.804;2024-02-16T13:59:22;13.80;-6.00
66726;HTU21D;53638;51.062;5.804;2024-02-16T14:01:48;13.83;-6.00
66726;HTU21D;53638;51.062;5.804;2024-02-16T14:04:15;13.79;-6.00
66726;HTU21D;53638;51.062;5.804;2024-02-16T14:06:41;13.79;-6.00
66726;HTU21D;53638;51.062;5.804;2024-02-16T14:09:07;13.78;-6.00
66726;HTU21D;53638;51.062;5.804;2024-02-16T14:11:36;13.73;-6.00
66726;HTU21D;53638;51.062;5.804;2024-02-16T14:14:02;13.70;-6.00
66726;HTU21D;53638;51.062;5.804;2024-02-16T14:16:28;13.58;-6.00
66726;HTU21D;53638;51.062;5.804;2024-02-16T14:18:56;13.60;-6.00
66726;HTU21D;53638;51.062;5.804;2024-02-16T14:21:22;13.65;-6.00
66726;HTU21D;53638;51.062;5.804;2024-02-16T14:23:48;13.69;-6.00
66726;HTU21D;53638;51.062;5.804;2024-02-16T14:26:14;13.61;-6.00
66726;HTU21D;53638;51.062;5.804;2024-02-16T14:28:40;13.50;-6.00
66726;HTU21D;53638;51.062;5.804;2024-02-16T14:31:06;13.55;-6.00
66726;HTU21D;53638;51.062;5.804;2024-02-16T14:33:32;13.61;-6.00
66726;HTU21D;53638;51.062;5.804;2024-02-16T14:36:02;13.64;-6.00
66726;HTU21D;53638;51.062;5.804;2024-02-16T14:38:28;13.65;-6.00
66726;HTU21D;53638;51.062;5.804;2024-02-16T14:40:54;13.64;-6.00
66726;HTU21D;53638;51.062;5.804;2024-02-16T14:43:20;13.63;-6.00
66726;HTU21D;53638;51.062;5.804;2024-02-16T14:45:46;13.55;-6.00
66726;HTU21D;53638;51.062;5.804;2024-02-16T14:48:12;13.56;-6.00
66726;HTU21D;53638;51.062;5.804;2024-02-16T14:50:38;13.60;-6.00
66726;HTU21D;53638;51.062;5.804;2024-02-16T14:53:04;13.56;-6.00
66726;HTU21D;53638;51.062;5.804;2024-02-16T14:55:30;13.49;-6.00
66726;HTU21D;53638;51.062;5.804;2024-02-16T14:57:56;13.45;-6.00
66726;HTU21D;53638;51.062;5.804;2024-02-16T15:00:22;13.44;-6.00
66726;HTU21D;53638;51.062;5.804;2024-02-16T15:02:50;13.40;-6.00
66726;HTU21D;53638;51.062;5.804;2024-02-16T15:05:16;13.40;-6.00
66726;HTU21D;53638;51.062;5.804;2024-02-16T15:07:42;13.43;-6.00
66726;HTU21D;53638;51.062;5.804;2024-02-16T15:10:08;13.39;-6.00
66726;HTU21D;53638;51.062;5.804;2024-02-16T15:12:36;13.39;-6.00
66726;HTU21D;53638;51.062;5.804;2024-02-16T15:15:02;13.37;-6.00